createdAt,value
2022-11-14T00:01:39.032Z,19.77
2022-11-14T00:04:10.733Z,21.10
2022-11-14T00:06:42.682Z,20.15
2022-11-14T00:09:16.483Z,17.60
2022-11-14T00:11:48.241Z,15.80
2022-11-14T00:14:19.993Z,18.60
2022-11-14T00:16:52.825Z,17.70
2022-11-14T00:19:24.513Z,20.03
2022-11-14T00:21:56.208Z,15.30
2022-11-14T00:24:28.144Z,19.37
2022-11-14T00:26:59.898Z,17.17
2022-11-14T00:29:31.647Z,20.27
2022-11-14T00:32:03.462Z,17.90
2022-11-14T00:34:35.469Z,19.20
2022-11-14T00:37:07.281Z,15.27
2022-11-14T00:39:40.713Z,18.30
2022-11-14T00:42:12.407Z,16.10
2022-11-14T00:44:44.158Z,17.90
2022-11-14T00:47:15.881Z,17.70
2022-11-14T00:49:47.759Z,16.40
2022-11-14T00:52:19.479Z,20.83
2022-11-14T00:54:51.202Z,17.33
2022-11-14T00:57:22.966Z,22.67
2022-11-14T00:59:55.703Z,20.40
2022-11-14T01:02:27.456Z,18.17
2022-11-14T01:04:59.370Z,17.50
2022-11-14T01:07:31.595Z,20.63
2022-11-14T01:10:04.482Z,20.67
2022-11-14T01:12:36.639Z,21.50
2022-11-14T01:15:09.007Z,17.93
2022-11-14T01:17:41.022Z,19.10
2022-11-14T01:20:12.982Z,20.43
2022-11-14T01:22:45.835Z,23.53
2022-11-14T01:25:17.622Z,14.43
2022-11-14T01:27:49.423Z,19.20
2022-11-14T01:30:22.219Z,19.20
2022-11-14T01:32:54.140Z,18.93
2022-11-14T01:35:25.915Z,21.43
2022-11-14T01:37:57.719Z,22.00
2022-11-14T01:40:30.973Z,22.93
2022-11-14T01:43:24.102Z,19.30
2022-11-14T01:46:03.954Z,19.70
2022-11-14T01:48:43.371Z,17.33
2022-11-14T01:51:27.506Z,20.40
2022-11-14T01:54:02.835Z,19.77
2022-11-14T01:56:45.708Z,18.20
2022-11-14T01:59:23.736Z,21.23
2022-11-14T02:01:59.053Z,20.37
2022-11-14T02:04:35.510Z,22.67
2022-11-14T02:07:08.744Z,16.53
2022-11-14T02:09:45.484Z,21.83
2022-11-14T02:12:19.037Z,21.50
2022-11-14T02:14:54.872Z,23.70
2022-11-14T02:17:30.507Z,23.40
2022-11-14T02:20:12.499Z,20.33
2022-11-14T02:22:44.309Z,26.50
2022-11-14T02:25:18.977Z,19.40
2022-11-14T02:27:51.555Z,25.77
2022-11-14T02:30:23.648Z,30.73
2022-11-14T02:33:10.428Z,21.97
2022-11-14T02:35:42.875Z,30.43
2022-11-14T02:38:15.237Z,17.43
2022-11-14T02:40:46.950Z,21.73
2022-11-14T02:43:18.680Z,25.20
2022-11-14T02:45:50.873Z,20.02
2022-11-14T02:48:22.553Z,23.70
2022-11-14T02:50:54.241Z,17.40
2022-11-14T02:53:25.910Z,18.37
2022-11-14T02:55:57.689Z,31.63
2022-11-14T02:58:29.850Z,28.70
2022-11-14T03:01:22.126Z,27.40
2022-11-14T03:03:53.653Z,19.07
2022-11-14T03:06:25.841Z,29.70
2022-11-14T03:08:57.598Z,26.20
2022-11-14T03:11:29.486Z,20.80
2022-11-14T03:14:01.483Z,21.73
2022-11-14T03:16:34.320Z,42.87
2022-11-14T03:19:06.002Z,36.10
2022-11-14T03:21:37.705Z,29.43
2022-11-14T03:24:09.375Z,16.40
2022-11-14T03:26:42.276Z,37.57
2022-11-14T03:29:14.008Z,38.00
2022-11-14T03:31:45.872Z,27.30
2022-11-14T03:34:17.622Z,20.40
2022-11-14T03:36:50.372Z,39.73
2022-11-14T03:39:24.812Z,30.85
2022-11-14T03:41:56.569Z,38.27
2022-11-14T03:44:28.361Z,25.93
2022-11-14T03:47:00.204Z,27.10
2022-11-14T03:49:32.073Z,34.47
2022-11-14T03:52:03.903Z,30.63
2022-11-14T03:54:37.849Z,26.47
2022-11-14T03:57:09.546Z,32.23
2022-11-14T03:59:42.264Z,24.23
2022-11-14T04:02:13.932Z,20.60
2022-11-14T04:04:46.145Z,35.60
2022-11-14T04:07:17.870Z,30.70
2022-11-14T04:09:49.642Z,23.27
2022-11-14T04:12:21.407Z,21.87
2022-11-14T04:14:53.431Z,29.50
2022-11-14T04:17:26.117Z,18.87
2022-11-14T04:19:57.859Z,22.17
2022-11-14T04:22:31.596Z,21.93
2022-11-14T04:25:03.749Z,20.40
2022-11-14T04:27:36.929Z,28.23
2022-11-14T04:30:12.018Z,21.23
2022-11-14T04:32:49.307Z,20.17
2022-11-14T04:35:21.054Z,20.63
2022-11-14T04:37:52.734Z,33.77
2022-11-14T04:40:24.961Z,22.80
2022-11-14T04:42:57.560Z,15.07
2022-11-14T04:45:29.359Z,16.50
2022-11-14T04:48:01.115Z,21.27
2022-11-14T04:50:32.799Z,32.00
2022-11-14T04:53:05.653Z,29.20
2022-11-14T04:55:39.178Z,23.03
2022-11-14T04:58:10.940Z,27.17
2022-11-14T05:00:43.036Z,32.13
2022-11-14T05:03:14.827Z,18.73
2022-11-14T05:05:46.743Z,19.37
2022-11-14T05:08:18.553Z,20.93
2022-11-14T05:10:50.323Z,17.60
2022-11-14T05:13:23.810Z,16.77
2022-11-14T05:15:59.905Z,11.90
2022-11-14T05:18:32.605Z,10.60
2022-11-14T05:21:06.031Z,9.90
2022-11-14T05:23:37.690Z,9.80
2022-11-14T05:26:12.817Z,13.43
2022-11-14T05:28:44.773Z,13.10
2022-11-14T05:31:19.252Z,12.57
2022-11-14T05:33:51.570Z,10.13
2022-11-14T05:36:23.625Z,11.97
2022-11-14T05:38:56.128Z,10.57
2022-11-14T05:41:28.026Z,14.30
2022-11-14T05:43:59.777Z,12.10
2022-11-14T05:46:31.490Z,21.00
2022-11-14T05:49:03.318Z,31.67
2022-11-14T05:51:35.148Z,59.40
2022-11-14T05:54:06.966Z,45.30
2022-11-14T05:56:38.700Z,33.93
2022-11-14T05:59:10.575Z,62.07
2022-11-14T06:01:42.313Z,28.00
2022-11-14T06:04:18.018Z,22.70
2022-11-14T06:06:49.982Z,17.93
2022-11-14T06:09:21.887Z,16.07
2022-11-14T06:11:53.884Z,16.40
2022-11-14T06:14:25.635Z,18.63
2022-11-14T06:16:57.700Z,18.43
2022-11-14T06:19:29.437Z,16.73
2022-11-14T06:22:01.398Z,17.13
2022-11-14T06:24:33.246Z,15.80
2022-11-14T06:27:04.941Z,14.30
2022-11-14T06:29:36.689Z,13.87
2022-11-14T06:32:08.509Z,12.70
2022-11-14T06:34:40.172Z,13.57
2022-11-14T06:37:12.280Z,12.90
2022-11-14T06:39:44.147Z,17.93
2022-11-14T06:42:17.096Z,13.97
2022-11-14T06:44:48.877Z,15.00
2022-11-14T06:47:20.621Z,13.10
2022-11-14T06:49:52.362Z,14.03
2022-11-14T06:52:25.888Z,11.47
2022-11-14T06:54:57.619Z,10.90
2022-11-14T06:57:29.823Z,12.20
2022-11-14T07:00:01.716Z,13.33
2022-11-14T07:02:33.482Z,12.50
2022-11-14T07:05:05.694Z,15.27
2022-11-14T07:07:37.546Z,13.80
2022-11-14T07:10:10.085Z,13.17
2022-11-14T07:12:41.782Z,14.70
2022-11-14T07:15:13.603Z,13.30
2022-11-14T07:17:45.273Z,13.30
2022-11-14T07:20:18.613Z,11.73
2022-11-14T07:22:50.387Z,13.53
2022-11-14T07:25:23.239Z,12.20
2022-11-14T07:27:57.850Z,13.07
2022-11-14T07:30:29.703Z,14.73
2022-11-14T07:33:01.445Z,26.47
2022-11-14T07:35:33.450Z,16.30
2022-11-14T07:38:05.280Z,25.20
2022-11-14T07:40:37.154Z,22.07
2022-11-14T07:43:08.833Z,26.13
2022-11-14T07:45:40.536Z,18.53
2022-11-14T07:48:12.272Z,16.40
2022-11-14T07:50:44.562Z,20.40
2022-11-14T07:53:17.713Z,17.10
2022-11-14T07:55:49.489Z,20.10
2022-11-14T07:58:21.660Z,15.80
2022-11-14T08:00:53.522Z,14.83
2022-11-14T08:03:28.479Z,14.33
2022-11-14T08:06:05.357Z,15.60
2022-11-14T08:08:37.527Z,12.70
2022-11-14T08:11:09.497Z,15.00
2022-11-14T08:13:41.218Z,13.30
2022-11-14T08:16:14.188Z,10.30
2022-11-14T08:18:46.146Z,10.90
2022-11-14T08:21:17.800Z,10.97
2022-11-14T08:23:49.567Z,10.80
2022-11-14T08:26:21.308Z,8.30
2022-11-14T08:28:54.403Z,9.52
2022-11-14T08:31:26.294Z,11.90
2022-11-14T08:33:58.685Z,13.70
2022-11-14T08:36:30.369Z,12.93
2022-11-14T08:39:02.404Z,8.37
2022-11-14T08:41:34.146Z,6.40
2022-11-14T08:44:06.185Z,8.20
2022-11-14T08:46:37.961Z,5.80
2022-11-14T08:49:09.717Z,4.70
2022-11-14T08:51:41.563Z,4.70
2022-11-14T08:54:13.388Z,5.97
2022-11-14T08:56:45.184Z,5.80
2022-11-14T08:59:17.059Z,5.23
2022-11-14T09:01:48.736Z,5.23
2022-11-14T09:04:20.526Z,4.40
2022-11-14T09:06:52.353Z,4.80
2022-11-14T09:09:24.467Z,5.00
2022-11-14T09:11:56.168Z,7.20
2022-11-14T09:14:27.857Z,4.87
2022-11-14T09:17:04.594Z,4.30
2022-11-14T09:19:37.810Z,5.10
2022-11-14T09:22:09.954Z,6.13
2022-11-14T09:24:41.789Z,6.23
2022-11-14T09:27:14.004Z,5.00
2022-11-14T09:29:45.718Z,5.27
2022-11-14T09:32:17.932Z,5.73
2022-11-14T09:34:49.654Z,4.43
2022-11-14T09:37:21.375Z,4.77
2022-11-14T09:39:53.059Z,5.87
2022-11-14T09:42:27.710Z,4.67
2022-11-14T09:45:04.202Z,4.60
2022-11-14T09:47:51.485Z,5.20
2022-11-14T09:50:28.782Z,5.67
2022-11-14T09:53:32.750Z,4.70
2022-11-14T09:56:04.591Z,6.07
2022-11-14T09:58:36.554Z,6.20
2022-11-14T10:01:26.376Z,5.70
2022-11-14T10:04:12.264Z,7.77
2022-11-14T10:07:10.067Z,6.40
2022-11-14T10:10:03.028Z,5.10
2022-11-14T10:12:49.961Z,5.77
2022-11-14T10:15:33.836Z,8.50
2022-11-14T10:18:48.074Z,7.50
2022-11-14T10:21:41.249Z,6.53
2022-11-14T10:24:31.311Z,4.90
2022-11-14T10:27:07.095Z,5.00
2022-11-14T10:29:51.655Z,6.33
2022-11-14T10:32:41.810Z,4.43
2022-11-14T10:35:19.638Z,5.13
2022-11-14T10:38:09.877Z,5.40
2022-11-14T10:40:45.683Z,3.60
2022-11-14T10:43:30.054Z,4.50
2022-11-14T10:46:23.407Z,3.40
2022-11-14T10:49:00.072Z,7.57
2022-11-14T10:51:44.330Z,5.93
2022-11-14T10:54:24.697Z,4.37
2022-11-14T10:56:56.520Z,3.90
2022-11-14T10:59:30.501Z,4.57
2022-11-14T11:02:02.186Z,10.70
2022-11-14T11:04:38.819Z,5.50
2022-11-14T11:07:30.741Z,7.13
2022-11-14T11:10:22.708Z,4.40
2022-11-14T11:12:54.550Z,6.20
2022-11-14T11:15:40.957Z,4.57
2022-11-14T11:18:27.630Z,6.53
2022-11-14T11:21:08.968Z,6.53
2022-11-14T11:23:52.663Z,6.40
2022-11-14T11:26:32.721Z,4.70
2022-11-14T11:29:16.628Z,4.90
2022-11-14T11:31:56.823Z,4.47
2022-11-14T11:34:33.257Z,4.40
2022-11-14T11:37:20.446Z,3.70
2022-11-14T11:39:57.413Z,3.47
2022-11-14T11:43:37.253Z,5.27
2022-11-14T11:46:04.782Z,3.77
2022-11-14T11:48:40.507Z,3.37
2022-11-14T11:51:20.497Z,3.80
2022-11-14T11:54:09.146Z,7.77
2022-11-14T11:56:43.328Z,3.90
2022-11-14T11:59:30.158Z,6.73
2022-11-14T12:02:25.120Z,11.50
2022-11-14T12:04:58.400Z,11.05
2022-11-14T12:08:15.950Z,5.33
2022-11-14T12:10:51.624Z,3.90
2022-11-14T12:13:42.097Z,4.60
2022-11-14T12:16:37.557Z,4.00
2022-11-14T12:19:35.678Z,4.60
2022-11-14T12:22:44.425Z,3.97
2022-11-14T12:25:38.387Z,4.43
2022-11-14T12:28:18.756Z,3.63
2022-11-14T12:30:57.436Z,3.50
2022-11-14T12:33:38.782Z,3.70
2022-11-14T12:36:12.818Z,3.13
2022-11-14T12:38:49.143Z,3.20
2022-11-14T12:41:31.014Z,3.73
2022-11-14T12:44:34.167Z,5.30
2022-11-14T12:47:05.925Z,2.90
2022-11-14T12:49:52.855Z,2.93
2022-11-14T12:52:43.815Z,3.40
2022-11-14T12:55:24.323Z,3.23
2022-11-14T12:58:21.518Z,5.07
2022-11-14T13:00:53.216Z,3.00
2022-11-14T13:03:46.933Z,3.50
2022-11-14T13:06:18.585Z,2.50
2022-11-14T13:09:34.650Z,3.87
2022-11-14T13:12:54.328Z,3.37
2022-11-14T13:15:49.889Z,2.80
2022-11-14T13:18:43.773Z,3.33
2022-11-14T13:21:43.812Z,3.80
2022-11-14T13:24:18.706Z,4.83
2022-11-14T13:26:54.956Z,3.63
2022-11-14T13:29:48.466Z,3.73
2022-11-14T13:32:41.949Z,10.27
2022-11-14T13:35:32.154Z,3.17
2022-11-14T13:38:12.766Z,4.20
2022-11-14T13:41:03.403Z,4.90
2022-11-14T13:43:52.741Z,4.57
2022-11-14T13:46:32.768Z,9.10
2022-11-14T13:49:40.438Z,4.07
2022-11-14T13:52:12.991Z,4.10
2022-11-14T13:54:51.527Z,4.10
2022-11-14T13:58:07.719Z,4.30
2022-11-14T14:01:02.468Z,5.13
2022-11-14T14:04:03.774Z,4.77
2022-11-14T14:06:59.032Z,6.93
2022-11-14T14:09:58.700Z,4.77
2022-11-14T14:12:34.602Z,3.83
2022-11-14T14:15:14.228Z,3.13
2022-11-14T14:17:54.156Z,5.40
2022-11-14T14:20:36.564Z,4.37
2022-11-14T14:23:20.551Z,5.57
2022-11-14T14:26:15.727Z,3.87
2022-11-14T14:29:07.237Z,4.20
2022-11-14T14:31:41.760Z,4.10
2022-11-14T14:34:34.528Z,3.30
2022-11-14T14:37:25.306Z,4.97
2022-11-14T14:40:02.459Z,5.00
2022-11-14T14:42:41.595Z,5.37
2022-11-14T14:45:22.114Z,4.43
2022-11-14T14:48:06.637Z,4.27
2022-11-14T14:50:50.593Z,4.20
2022-11-14T14:53:35.690Z,3.93
2022-11-14T14:56:18.707Z,4.03
2022-11-14T14:58:51.494Z,4.80
2022-11-14T15:01:34.122Z,4.90
2022-11-14T15:04:08.732Z,4.33
2022-11-14T15:06:46.432Z,7.67
2022-11-14T15:09:29.666Z,5.97
2022-11-14T15:12:02.832Z,6.33
2022-11-14T15:14:38.712Z,4.77
2022-11-14T15:17:10.880Z,10.20
2022-11-14T15:19:45.895Z,4.13
2022-11-14T15:22:20.583Z,4.57
2022-11-14T15:25:12.866Z,7.80
2022-11-14T15:27:51.445Z,4.63
2022-11-14T15:30:27.646Z,4.17
2022-11-14T15:33:23.133Z,5.53
2022-11-14T15:36:17.658Z,5.67
2022-11-14T15:39:05.243Z,4.53
2022-11-14T15:41:36.954Z,10.60
2022-11-14T15:44:35.612Z,5.53
2022-11-14T15:47:19.028Z,5.77
2022-11-14T15:50:13.633Z,7.17
2022-11-14T15:52:53.840Z,5.37
2022-11-14T15:55:25.837Z,5.20
2022-11-14T15:58:26.016Z,5.10
2022-11-14T16:00:52.177Z,5.30
2022-11-14T16:03:24.243Z,4.90
2022-11-14T16:05:55.904Z,4.70
2022-11-14T16:08:27.722Z,4.80
2022-11-14T16:10:59.572Z,5.63
2022-11-14T16:13:31.688Z,5.67
2022-11-14T16:16:03.649Z,5.20
2022-11-14T16:18:35.377Z,5.23
2022-11-14T16:21:16.168Z,4.97
2022-11-14T16:23:50.057Z,5.63
2022-11-14T16:26:21.739Z,5.13
2022-11-14T16:28:53.470Z,8.33
2022-11-14T16:31:25.189Z,7.20
2022-11-14T16:33:58.024Z,9.30
2022-11-14T16:36:29.787Z,5.87
2022-11-14T16:39:03.594Z,5.70
2022-11-14T16:41:35.241Z,7.10
2022-11-14T16:44:12.573Z,5.67
2022-11-14T16:46:45.491Z,7.27
2022-11-14T16:49:17.911Z,4.47
2022-11-14T16:51:51.080Z,6.17
2022-11-14T16:54:23.220Z,7.57
2022-11-14T16:56:54.882Z,6.50
2022-11-14T16:59:26.542Z,8.15
2022-11-14T17:02:01.680Z,6.50
2022-11-14T17:04:33.512Z,7.73
2022-11-14T17:07:05.650Z,7.73
2022-11-14T17:09:37.642Z,6.90
2022-11-14T17:12:10.361Z,10.03
2022-11-14T17:14:42.066Z,7.00
2022-11-14T17:17:13.811Z,7.50
2022-11-14T17:19:48.394Z,5.40
2022-11-14T17:22:20.104Z,6.70
2022-11-14T17:24:51.764Z,6.53
2022-11-14T17:27:23.527Z,6.63
2022-11-14T17:29:56.215Z,7.33
2022-11-14T17:32:30.120Z,6.20
2022-11-14T17:35:01.822Z,7.17
2022-11-14T17:37:35.151Z,7.93
2022-11-14T17:40:12.737Z,6.70
2022-11-14T17:42:46.919Z,7.47
2022-11-14T17:45:18.656Z,8.80
2022-11-14T17:47:50.988Z,6.70
2022-11-14T17:50:22.723Z,6.80
2022-11-14T17:52:54.621Z,10.20
2022-11-14T17:55:26.346Z,8.73
2022-11-14T17:57:58.035Z,7.80
2022-11-14T18:00:29.764Z,8.77
2022-11-14T18:03:01.532Z,8.60
2022-11-14T18:05:33.985Z,11.33
2022-11-14T18:08:05.689Z,8.37
2022-11-14T18:10:37.669Z,8.47
2022-11-14T18:13:10.230Z,9.43
2022-11-14T18:15:41.984Z,7.70
2022-11-14T18:18:13.710Z,12.00
2022-11-14T18:20:45.447Z,10.50
2022-11-14T18:23:17.582Z,14.13
2022-11-14T18:25:49.243Z,11.63
2022-11-14T18:28:20.949Z,10.83
2022-11-14T18:30:56.693Z,10.60
2022-11-14T18:33:28.320Z,10.57
2022-11-14T18:36:01.564Z,10.07
2022-11-14T18:38:33.646Z,11.80
2022-11-14T18:41:09.365Z,10.57
2022-11-14T18:43:41.509Z,11.67
2022-11-14T18:46:16.199Z,11.00
2022-11-14T18:48:51.983Z,10.73
2022-11-14T18:51:29.226Z,8.00
2022-11-14T18:54:00.893Z,17.87
2022-11-14T18:56:33.139Z,11.33
2022-11-14T18:59:05.242Z,7.20
2022-11-14T19:01:37.080Z,8.07
2022-11-14T19:04:10.721Z,9.30
2022-11-14T19:06:43.750Z,11.57
2022-11-14T19:09:16.510Z,8.67
2022-11-14T19:12:07.344Z,8.00
2022-11-14T19:14:39.035Z,10.03
2022-11-14T19:17:10.718Z,10.83
2022-11-14T19:19:42.475Z,8.77
2022-11-14T19:22:14.316Z,6.77
2022-11-14T19:24:46.417Z,7.00
2022-11-14T19:27:18.270Z,8.60
2022-11-14T19:29:51.279Z,7.00
2022-11-14T19:32:22.947Z,6.13
2022-11-14T19:34:54.621Z,6.80
2022-11-14T19:37:26.306Z,8.80
2022-11-14T19:39:58.037Z,7.77
2022-11-14T19:42:29.702Z,6.63
2022-11-14T19:45:01.450Z,6.43
2022-11-14T19:47:33.184Z,6.73
2022-11-14T19:50:05.254Z,6.93
2022-11-14T19:52:37.266Z,5.83
2022-11-14T19:55:09.351Z,5.57
2022-11-14T19:57:41.078Z,6.80
2022-11-14T20:00:13.425Z,6.37
2022-11-14T20:02:48.236Z,66.43
2022-11-14T20:05:19.932Z,6.95
2022-11-14T20:07:51.665Z,7.23
2022-11-14T20:10:23.357Z,6.93
2022-11-14T20:12:56.245Z,5.93
2022-11-14T20:15:29.624Z,7.30
2022-11-14T20:18:01.335Z,5.83
2022-11-14T20:20:34.012Z,7.47
2022-11-14T20:23:06.338Z,6.65
2022-11-14T20:25:38.376Z,9.50
2022-11-14T20:28:12.002Z,7.17
2022-11-14T20:30:43.724Z,7.33
2022-11-14T20:33:15.772Z,9.03
2022-11-14T20:35:48.014Z,7.40
2022-11-14T20:38:19.798Z,6.57
2022-11-14T20:40:55.853Z,7.50
2022-11-14T20:43:29.311Z,9.10
2022-11-14T20:46:12.806Z,6.60
2022-11-14T20:48:47.001Z,7.10
2022-11-14T20:51:21.441Z,9.50
2022-11-14T20:53:55.316Z,6.20
2022-11-14T20:56:27.277Z,8.40
2022-11-14T20:58:59.240Z,10.60
2022-11-14T21:01:31.005Z,8.10
2022-11-14T21:04:02.856Z,7.27
2022-11-14T21:06:34.525Z,7.60
2022-11-14T21:09:06.205Z,9.77
2022-11-14T21:11:37.996Z,6.87
2022-11-14T21:14:11.923Z,8.27
2022-11-14T21:16:43.643Z,7.57
2022-11-14T21:19:15.443Z,7.90
2022-11-14T21:21:47.113Z,7.30
2022-11-14T21:24:20.946Z,5.33
2022-11-14T21:26:52.718Z,8.25
2022-11-14T21:29:24.423Z,5.87
2022-11-14T21:31:56.292Z,6.13
2022-11-14T21:34:28.032Z,6.13
2022-11-14T21:37:00.224Z,6.20
2022-11-14T21:39:32.290Z,5.50
2022-11-14T21:42:05.179Z,6.03
2022-11-14T21:44:36.889Z,6.07
2022-11-14T21:47:08.636Z,5.70
2022-11-14T21:49:40.393Z,20.53
2022-11-14T21:52:12.070Z,6.73
2022-11-14T21:54:43.829Z,7.13
2022-11-14T21:57:15.588Z,6.03
2022-11-14T21:59:47.316Z,6.63
2022-11-14T22:02:37.564Z,8.00
2022-11-14T22:05:09.311Z,7.30
2022-11-14T22:07:42.132Z,13.70
2022-11-14T22:10:13.866Z,8.30
2022-11-14T22:12:45.537Z,8.10
2022-11-14T22:15:17.201Z,8.32
2022-11-14T22:17:48.920Z,7.97
2022-11-14T22:20:20.644Z,11.00
2022-11-14T22:22:54.446Z,6.97
2022-11-14T22:25:26.228Z,8.53
2022-11-14T22:27:58.436Z,7.30
2022-11-14T22:30:30.362Z,11.73
2022-11-14T22:33:02.089Z,11.13
2022-11-14T22:35:35.449Z,6.63
2022-11-14T22:38:07.097Z,8.20
2022-11-14T22:40:38.767Z,7.70
2022-11-14T22:43:10.464Z,8.43
2022-11-14T22:45:42.156Z,7.70
2022-11-14T22:48:13.814Z,8.00
2022-11-14T22:50:45.783Z,7.47
2022-11-14T22:53:17.434Z,9.03
2022-11-14T22:55:49.283Z,10.40
2022-11-14T22:58:21.199Z,6.40
2022-11-14T23:00:53.141Z,8.77
2022-11-14T23:03:24.866Z,6.70
2022-11-14T23:05:56.557Z,7.40
2022-11-14T23:08:28.372Z,6.83
2022-11-14T23:11:04.081Z,7.30
2022-11-14T23:13:44.181Z,6.80
2022-11-14T23:16:19.299Z,7.77
2022-11-14T23:18:53.155Z,7.27
2022-11-14T23:21:30.475Z,7.30
2022-11-14T23:24:06.072Z,10.70
2022-11-14T23:26:39.161Z,7.13
2022-11-14T23:29:14.348Z,11.60
2022-11-14T23:31:46.610Z,11.27
2022-11-14T23:34:18.276Z,9.07
2022-11-14T23:36:50.008Z,7.60
2022-11-14T23:39:21.890Z,8.20
2022-11-14T23:41:53.560Z,8.80
2022-11-14T23:44:25.218Z,9.83
2022-11-14T23:46:57.910Z,12.80
2022-11-14T23:49:30.257Z,8.60
2022-11-14T23:52:01.913Z,8.37
2022-11-14T23:54:33.581Z,7.70
2022-11-14T23:57:05.580Z,10.00
2022-11-14T23:59:37.300Z,9.77
